sensor_id;sensor_type;location;lat;lon;timestamp;pressure;altitude;pressure_sealevel;temperature;humidity
19596;BME280;9945;46.010;8.946;2022-09-13T00:01:57;97193.00;;;20.03;70.76
19596;BME280;9945;46.010;8.946;2022-09-13T00:04:25;97194.84;;;20.03;71.09
19596;BME280;9945;46.010;8.946;2022-09-13T00:06:52;97192.81;;;19.98;71.47
19596;BME280;9945;46.010;8.946;2022-09-13T00:09:19;97189.94;;;20.00;71.04
19596;BME280;9945;46.010;8.946;2022-09-13T00:11:46;97193.84;;;19.97;71.01
19596;BME280;9945;46.010;8.946;2022-09-13T00:14:13;97195.69;;;19.97;70.99
19596;BME280;9945;46.010;8.946;2022-09-13T00:16:39;97201.81;;;19.97;70.80
19596;BME280;9945;46.010;8.946;2022-09-13T00:19:06;97203.03;;;19.95;71.24
19596;BME280;9945;46.010;8.946;2022-09-13T00:21:35;97205.06;;;19.93;70.78
19596;BME280;9945;46.010;8.946;2022-09-13T00:24:02;97205.06;;;19.93;70.75
19596;BME280;9945;46.010;8.946;2022-09-13T00:26:29;97210.19;;;19.94;70.92
19596;BME280;9945;46.010;8.946;2022-09-13T00:28:57;97212.84;;;19.94;71.31
19596;BME280;9945;46.010;8.946;2022-09-13T00:31:26;97203.66;;;19.90;71.45
19596;BME280;9945;46.010;8.946;2022-09-13T00:33:53;97204.69;;;19.89;71.19
19596;BME280;9945;46.010;8.946;2022-09-13T00:36:21;97212.44;;;19.84;71.69
19596;BME280;9945;46.010;8.946;2022-09-13T00:38:49;97214.91;;;19.86;71.77
19596;BME280;9945;46.010;8.946;2022-09-13T00:41:18;97210.59;;;19.85;71.25
19596;BME280;9945;46.010;8.946;2022-09-13T00:43:48;97210.81;;;19.83;71.68
19596;BME280;9945;46.010;8.946;2022-09-13T00:46:26;97214.50;;;19.82;71.62
19596;BME280;9945;46.010;8.946;2022-09-13T00:49:00;97210.81;;;19.77;71.49
19596;BME280;9945;46.010;8.946;2022-09-13T00:51:29;97208.38;;;19.75;71.03
19596;BME280;9945;46.010;8.946;2022-09-13T00:53:58;97211.03;;;19.75;70.73
19596;BME280;9945;46.010;8.946;2022-09-13T00:56:28;97206.97;;;19.73;71.35
19596;BME280;9945;46.010;8.946;2022-09-13T00:59:00;97196.34;;;19.73;71.53
19596;BME280;9945;46.010;8.946;2022-09-13T01:01:32;97196.34;;;19.73;71.88
19596;BME280;9945;46.010;8.946;2022-09-13T01:04:01;97203.69;;;19.71;71.33
19596;BME280;9945;46.010;8.946;2022-09-13T01:06:30;97204.31;;;19.73;71.29
19596;BME280;9945;46.010;8.946;2022-09-13T01:09:01;97207.16;;;19.71;71.08
19596;BME280;9945;46.010;8.946;2022-09-13T01:11:35;97201.66;;;19.73;70.77
19596;BME280;9945;46.010;8.946;2022-09-13T01:14:06;97214.13;;;19.72;70.68
19596;BME280;9945;46.010;8.946;2022-09-13T01:16:34;97203.69;;;19.71;70.62
19596;BME280;9945;46.010;8.946;2022-09-13T01:19:02;97209.19;;;19.69;71.21
19596;BME280;9945;46.010;8.946;2022-09-13T01:25:05;97205.13;;;19.53;71.69
19596;BME280;9945;46.010;8.946;2022-09-13T01:28:03;97205.31;;;19.52;71.30
19596;BME280;9945;46.010;8.946;2022-09-13T01:30:39;97190.59;;;19.49;71.37
19596;BME280;9945;46.010;8.946;2022-09-13T01:33:19;97191.63;;;19.48;71.13
19596;BME280;9945;46.010;8.946;2022-09-13T01:36:07;97188.53;;;19.45;71.55
19596;BME280;9945;46.010;8.946;2022-09-13T01:38:54;97187.53;;;19.46;71.16
19596;BME280;9945;46.010;8.946;2022-09-13T01:41:46;97185.88;;;19.45;70.96
19596;BME280;9945;46.010;8.946;2022-09-13T01:44:26;97188.75;;;19.43;70.37
19596;BME280;9945;46.010;8.946;2022-09-13T01:47:02;97195.69;;;19.44;69.77
19596;BME280;9945;46.010;8.946;2022-09-13T01:49:42;97191.19;;;19.45;69.81
19596;BME280;9945;46.010;8.946;2022-09-13T01:52:17;97186.09;;;19.37;71.03
19596;BME280;9945;46.010;8.946;2022-09-13T01:54:53;97187.31;;;19.34;70.75
19596;BME280;9945;46.010;8.946;2022-09-13T01:57:27;97194.66;;;19.32;71.25
19596;BME280;9945;46.010;8.946;2022-09-13T02:00:02;97188.72;;;19.23;71.37
19596;BME280;9945;46.010;8.946;2022-09-13T02:02:34;97179.94;;;19.23;71.54
19596;BME280;9945;46.010;8.946;2022-09-13T02:05:13;97187.31;;;19.21;72.00
19596;BME280;9945;46.010;8.946;2022-09-13T02:07:45;97188.72;;;19.23;71.35
19596;BME280;9945;46.010;8.946;2022-09-13T02:10:20;97179.72;;;19.24;71.15
19596;BME280;9945;46.010;8.946;2022-09-13T02:12:50;97186.88;;;19.24;70.61
19596;BME280;9945;46.010;8.946;2022-09-13T02:15:21;97177.06;;;19.24;71.30
19596;BME280;9945;46.010;8.946;2022-09-13T02:17:56;97178.91;;;19.24;70.54
19596;BME280;9945;46.010;8.946;2022-09-13T02:20:28;97173.22;;;19.20;71.15
19596;BME280;9945;46.010;8.946;2022-09-13T02:23:01;97168.72;;;19.21;70.45
19596;BME280;9945;46.010;8.946;2022-09-13T02:25:31;97173.41;;;19.19;71.13
19596;BME280;9945;46.010;8.946;2022-09-13T02:28:02;97169.13;;;19.18;71.15
19596;BME280;9945;46.010;8.946;2022-09-13T02:30:33;97163.00;;;19.17;71.02
19596;BME280;9945;46.010;8.946;2022-09-13T02:33:11;97157.28;;;19.14;71.51
19596;BME280;9945;46.010;8.946;2022-09-13T02:35:43;97152.56;;;19.16;71.15
19596;BME280;9945;46.010;8.946;2022-09-13T02:38:16;97159.72;;;19.15;71.10
19596;BME280;9945;46.010;8.946;2022-09-13T02:40:48;97156.47;;;19.13;70.60
19596;BME280;9945;46.010;8.946;2022-09-13T02:43:24;97159.50;;;19.10;71.07
19596;BME280;9945;46.010;8.946;2022-09-13T02:46:08;97159.31;;;19.05;71.59
19596;BME280;9945;46.010;8.946;2022-09-13T02:48:48;97151.75;;;19.02;71.18
19596;BME280;9945;46.010;8.946;2022-09-13T02:51:21;97157.88;;;19.03;71.02
19596;BME280;9945;46.010;8.946;2022-09-13T02:53:54;97156.03;;;19.03;71.20
19596;BME280;9945;46.010;8.946;2022-09-13T02:56:30;97165.22;;;19.01;71.30
19596;BME280;9945;46.010;8.946;2022-09-13T02:59:03;97157.44;;;18.99;70.65
19596;BME280;9945;46.010;8.946;2022-09-13T03:01:33;97152.75;;;18.95;71.82
19596;BME280;9945;46.010;8.946;2022-09-13T03:04:02;97150.69;;;18.90;72.04
19596;BME280;9945;46.010;8.946;2022-09-13T03:06:29;97152.34;;;18.84;72.83
19596;BME280;9945;46.010;8.946;2022-09-13T03:08:59;97156.38;;;18.74;74.44
19596;BME280;9945;46.010;8.946;2022-09-13T03:11:36;97153.09;;;18.65;73.30
19596;BME280;9945;46.010;8.946;2022-09-13T03:14:17;97150.25;;;18.73;72.67
19596;BME280;9945;46.010;8.946;2022-09-13T03:17:07;97142.94;;;18.75;72.80
19596;BME280;9945;46.010;8.946;2022-09-13T03:19:52;97142.09;;;18.75;72.05
19596;BME280;9945;46.010;8.946;2022-09-13T03:22:43;97131.88;;;18.72;72.55
19596;BME280;9945;46.010;8.946;2022-09-13T03:25:25;97132.13;;;18.70;72.72
19596;BME280;9945;46.010;8.946;2022-09-13T03:28:01;97132.31;;;18.69;72.92
19596;BME280;9945;46.010;8.946;2022-09-13T03:30:35;97134.72;;;18.64;73.81
19596;BME280;9945;46.010;8.946;2022-09-13T03:33:06;97133.13;;;18.63;72.68
19596;BME280;9945;46.010;8.946;2022-09-13T03:35:42;97139.84;;;18.65;74.52
19596;BME280;9945;46.010;8.946;2022-09-13T03:38:16;97138.81;;;18.60;73.73
19596;BME280;9945;46.010;8.946;2022-09-13T03:40:47;97136.56;;;18.63;73.38
19596;BME280;9945;46.010;8.946;2022-09-13T03:43:18;97142.91;;;18.62;73.31
19596;BME280;9945;46.010;8.946;2022-09-13T03:45:48;97141.47;;;18.60;73.14
19596;BME280;9945;46.010;8.946;2022-09-13T03:48:17;97139.19;;;18.57;74.30
19596;BME280;9945;46.010;8.946;2022-09-13T03:50:46;97133.22;;;18.48;74.07
19596;BME280;9945;46.010;8.946;2022-09-13T03:53:18;97139.16;;;18.43;74.35
19596;BME280;9945;46.010;8.946;2022-09-13T03:55:46;97130.56;;;18.41;75.08
19596;BME280;9945;46.010;8.946;2022-09-13T03:58:18;97150.97;;;18.41;74.52
19596;BME280;9945;46.010;8.946;2022-09-13T04:00:46;97143.00;;;18.41;74.96
19596;BME280;9945;46.010;8.946;2022-09-13T04:03:13;97145.66;;;18.41;74.23
19596;BME280;9945;46.010;8.946;2022-09-13T04:05:40;97137.88;;;18.39;74.12
19596;BME280;9945;46.010;8.946;2022-09-13T04:08:08;97141.38;;;18.40;74.55
19596;BME280;9945;46.010;8.946;2022-09-13T04:10:35;97135.03;;;18.41;75.04
19596;BME280;9945;46.010;8.946;2022-09-13T04:13:03;97129.75;;;18.41;75.21
19596;BME280;9945;46.010;8.946;2022-09-13T04:15:30;97132.19;;;18.36;75.79
19596;BME280;9945;46.010;8.946;2022-09-13T04:17:57;97134.03;;;18.35;74.96
19596;BME280;9945;46.010;8.946;2022-09-13T04:20:24;97129.09;;;18.32;74.75
19596;BME280;9945;46.010;8.946;2022-09-13T04:22:51;97122.16;;;18.31;75.84
19596;BME280;9945;46.010;8.946;2022-09-13T04:25:20;97129.72;;;18.28;76.79
19596;BME280;9945;46.010;8.946;2022-09-13T04:27:48;97139.50;;;18.27;76.20
19596;BME280;9945;46.010;8.946;2022-09-13T04:30:15;97125.00;;;18.23;76.44
19596;BME280;9945;46.010;8.946;2022-09-13T04:32:42;97130.91;;;18.25;77.60
19596;BME280;9945;46.010;8.946;2022-09-13T04:35:10;97126.44;;;18.26;78.02
19596;BME280;9945;46.010;8.946;2022-09-13T04:37:37;97124.16;;;18.23;77.99
19596;BME280;9945;46.010;8.946;2022-09-13T04:40:05;97125.19;;;18.22;79.46
19596;BME280;9945;46.010;8.946;2022-09-13T04:42:34;97135.59;;;18.23;79.48
19596;BME280;9945;46.010;8.946;2022-09-13T04:45:02;97138.44;;;18.22;78.69
19596;BME280;9945;46.010;8.946;2022-09-13T04:47:29;97141.31;;;18.20;79.49
19596;BME280;9945;46.010;8.946;2022-09-13T04:49:56;97146.81;;;18.19;80.55
19596;BME280;9945;46.010;8.946;2022-09-13T04:52:24;97147.19;;;18.15;80.81
19596;BME280;9945;46.010;8.946;2022-09-13T04:54:51;97144.91;;;18.12;80.79
19596;BME280;9945;46.010;8.946;2022-09-13T04:57:18;97146.38;;;18.15;80.19
19596;BME280;9945;46.010;8.946;2022-09-13T04:59:46;97147.00;;;18.17;80.72
19596;BME280;9945;46.010;8.946;2022-09-13T05:02:13;97150.03;;;18.14;81.90
19596;BME280;9945;46.010;8.946;2022-09-13T05:04:40;97142.06;;;18.14;81.01
19596;BME280;9945;46.010;8.946;2022-09-13T05:07:06;97147.19;;;18.15;80.34
19596;BME280;9945;46.010;8.946;2022-09-13T05:09:33;97143.31;;;18.18;80.00
19596;BME280;9945;46.010;8.946;2022-09-13T05:12:01;97142.09;;;18.21;80.98
19596;BME280;9945;46.010;8.946;2022-09-13T05:14:28;97134.94;;;18.14;81.56
19596;BME280;9945;46.010;8.946;2022-09-13T05:16:56;97134.94;;;18.14;80.87
19596;BME280;9945;46.010;8.946;2022-09-13T05:19:23;97140.25;;;18.14;82.17
19596;BME280;9945;46.010;8.946;2022-09-13T05:21:50;97145.78;;;18.20;80.08
19596;BME280;9945;46.010;8.946;2022-09-13T05:24:17;97144.38;;;18.24;80.13
19596;BME280;9945;46.010;8.946;2022-09-13T05:26:44;97147.25;;;18.29;80.84
19596;BME280;9945;46.010;8.946;2022-09-13T05:29:11;97151.31;;;18.31;80.48
19596;BME280;9945;46.010;8.946;2022-09-13T05:31:40;97150.50;;;18.31;79.88
19596;BME280;9945;46.010;8.946;2022-09-13T05:34:10;97147.47;;;18.34;80.29
19596;BME280;9945;46.010;8.946;2022-09-13T05:36:38;97141.34;;;18.33;79.77
19596;BME280;9945;46.010;8.946;2022-09-13T05:39:06;97153.16;;;18.37;78.60
19596;BME280;9945;46.010;8.946;2022-09-13T05:41:37;97159.91;;;18.40;78.91
19596;BME280;9945;46.010;8.946;2022-09-13T05:44:04;97163.19;;;18.42;79.16
19596;BME280;9945;46.010;8.946;2022-09-13T05:46:31;97161.56;;;18.41;78.28
19596;BME280;9945;46.010;8.946;2022-09-13T05:48:58;97162.00;;;18.44;78.36
19596;BME280;9945;46.010;8.946;2022-09-13T05:51:26;97155.06;;;18.43;78.35
19596;BME280;9945;46.010;8.946;2022-09-13T05:53:53;97161.38;;;18.42;78.61
19596;BME280;9945;46.010;8.946;2022-09-13T05:56:23;97153.22;;;18.44;78.22
19596;BME280;9945;46.010;8.946;2022-09-13T05:58:51;97139.16;;;18.43;78.90
19596;BME280;9945;46.010;8.946;2022-09-13T06:01:20;97131.19;;;18.43;79.04
19596;BME280;9945;46.010;8.946;2022-09-13T06:03:47;97119.59;;;18.51;78.30
19596;BME280;9945;46.010;8.946;2022-09-13T06:06:15;97124.56;;;18.74;77.63
19596;BME280;9945;46.010;8.946;2022-09-13T06:08:44;97126.44;;;19.00;76.87
19596;BME280;9945;46.010;8.946;2022-09-13T06:11:13;97117.66;;;19.25;75.65
19596;BME280;9945;46.010;8.946;2022-09-13T06:13:40;97121.34;;;19.51;74.79
19596;BME280;9945;46.010;8.946;2022-09-13T06:16:09;97112.72;;;19.75;73.22
19596;BME280;9945;46.010;8.946;2022-09-13T06:18:36;97118.38;;;19.98;71.92
19596;BME280;9945;46.010;8.946;2022-09-13T06:21:06;97122.41;;;20.14;71.61
19596;BME280;9945;46.010;8.946;2022-09-13T06:23:34;97138.13;;;20.22;69.64
19596;BME280;9945;46.010;8.946;2022-09-13T06:26:03;97127.25;;;20.30;70.19
19596;BME280;9945;46.010;8.946;2022-09-13T06:28:31;97127.06;;;20.38;70.33
19596;BME280;9945;46.010;8.946;2022-09-13T06:31:00;97129.06;;;20.50;68.96
19596;BME280;9945;46.010;8.946;2022-09-13T06:33:27;97135.09;;;20.63;67.50
19596;BME280;9945;46.010;8.946;2022-09-13T06:35:54;97126.06;;;20.71;66.75
19596;BME280;9945;46.010;8.946;2022-09-13T06:38:21;97124.50;;;20.88;68.05
19596;BME280;9945;46.010;8.946;2022-09-13T06:40:58;97130.88;;;21.12;66.08
19596;BME280;9945;46.010;8.946;2022-09-13T06:43:26;97118.69;;;21.29;62.77
19596;BME280;9945;46.010;8.946;2022-09-13T06:45:58;97113.84;;;21.44;63.48
19596;BME280;9945;46.010;8.946;2022-09-13T06:48:26;97098.34;;;21.60;62.78
19596;BME280;9945;46.010;8.946;2022-09-13T06:50:57;97086.72;;;21.72;61.79
19596;BME280;9945;46.010;8.946;2022-09-13T06:53:24;97082.22;;;21.91;62.36
19596;BME280;9945;46.010;8.946;2022-09-13T06:55:59;97090.59;;;22.13;61.66
19596;BME280;9945;46.010;8.946;2022-09-13T06:58:29;97094.75;;;22.09;60.41
19596;BME280;9945;46.010;8.946;2022-09-13T07:01:07;97103.88;;;22.19;61.97
19596;BME280;9945;46.010;8.946;2022-09-13T07:03:36;97096.44;;;22.21;60.41
19596;BME280;9945;46.010;8.946;2022-09-13T07:06:08;97090.25;;;22.39;60.55
19596;BME280;9945;46.010;8.946;2022-09-13T07:08:35;97089.63;;;22.55;60.05
19596;BME280;9945;46.010;8.946;2022-09-13T07:11:02;97094.31;;;22.72;59.35
19596;BME280;9945;46.010;8.946;2022-09-13T07:13:30;97095.53;;;22.76;59.76
19596;BME280;9945;46.010;8.946;2022-09-13T07:16:00;97102.66;;;22.93;59.01
19596;BME280;9945;46.010;8.946;2022-09-13T07:18:27;97102.78;;;22.98;57.89
19596;BME280;9945;46.010;8.946;2022-09-13T07:20:58;97104.91;;;23.08;57.63
19596;BME280;9945;46.010;8.946;2022-09-13T07:23:26;97108.53;;;23.14;56.93
19596;BME280;9945;46.010;8.946;2022-09-13T07:25:54;97114.31;;;23.11;57.39
19596;BME280;9945;46.010;8.946;2022-09-13T07:28:27;97102.72;;;23.05;57.63
19596;BME280;9945;46.010;8.946;2022-09-13T07:30:56;97106.41;;;23.16;57.68
19596;BME280;9945;46.010;8.946;2022-09-13T07:33:24;97101.22;;;23.21;57.63
19596;BME280;9945;46.010;8.946;2022-09-13T07:35:55;97100.50;;;23.25;56.98
19596;BME280;9945;46.010;8.946;2022-09-13T07:38:22;97094.13;;;23.26;57.75
19596;BME280;9945;46.010;8.946;2022-09-13T07:40:53;97090.88;;;23.36;57.34
19596;BME280;9945;46.010;8.946;2022-09-13T07:43:20;97092.31;;;23.50;57.18
19596;BME280;9945;46.010;8.946;2022-09-13T07:45:47;97098.94;;;23.59;56.40
19596;BME280;9945;46.010;8.946;2022-09-13T07:48:15;97103.69;;;23.69;56.75
19596;BME280;9945;46.010;8.946;2022-09-13T07:50:42;97105.19;;;23.88;56.42
19596;BME280;9945;46.010;8.946;2022-09-13T07:53:09;97106.56;;;24.02;55.25
19596;BME280;9945;46.010;8.946;2022-09-13T07:55:36;97111.66;;;24.04;55.66
19596;BME280;9945;46.010;8.946;2022-09-13T07:58:02;97111.66;;;24.16;55.19
19596;BME280;9945;46.010;8.946;2022-09-13T08:00:29;97113.72;;;24.25;54.38
19596;BME280;9945;46.010;8.946;2022-09-13T08:02:56;97114.91;;;24.29;54.58
19596;BME280;9945;46.010;8.946;2022-09-13T08:05:24;97115.78;;;24.46;54.71
19596;BME280;9945;46.010;8.946;2022-09-13T08:07:51;97121.84;;;24.70;53.80
19596;BME280;9945;46.010;8.946;2022-09-13T08:10:18;97121.22;;;24.92;53.21
19596;BME280;9945;46.010;8.946;2022-09-13T08:12:45;97130.72;;;24.87;53.38
19596;BME280;9945;46.010;8.946;2022-09-13T08:15:12;97132.38;;;25.17;52.44
19596;BME280;9945;46.010;8.946;2022-09-13T08:17:39;97142.03;;;25.35;51.96
19596;BME280;9945;46.010;8.946;2022-09-13T08:20:06;97139.84;;;25.48;51.97
19596;BME280;9945;46.010;8.946;2022-09-13T08:22:35;97140.06;;;25.80;51.80
19596;BME280;9945;46.010;8.946;2022-09-13T08:25:02;97136.88;;;26.22;49.75
19596;BME280;9945;46.010;8.946;2022-09-13T08:27:29;97138.00;;;26.43;49.63
19596;BME280;9945;46.010;8.946;2022-09-13T08:29:56;97143.78;;;26.56;48.98
19596;BME280;9945;46.010;8.946;2022-09-13T08:32:23;97140.50;;;26.76;48.95
19596;BME280;9945;46.010;8.946;2022-09-13T08:34:49;97137.25;;;26.96;49.41
19596;BME280;9945;46.010;8.946;2022-09-13T08:37:17;97137.09;;;27.07;47.65
19596;BME280;9945;46.010;8.946;2022-09-13T08:39:46;97136.31;;;26.85;48.34
19596;BME280;9945;46.010;8.946;2022-09-13T08:42:24;97143.00;;;27.04;47.50
19596;BME280;9945;46.010;8.946;2022-09-13T08:44:54;97141.50;;;27.19;47.21
19596;BME280;9945;46.010;8.946;2022-09-13T08:47:35;97142.69;;;27.33;46.34
19596;BME280;9945;46.010;8.946;2022-09-13T08:50:11;97142.28;;;27.46;45.92
19596;BME280;9945;46.010;8.946;2022-09-13T08:52:47;97138.59;;;27.94;45.99
19596;BME280;9945;46.010;8.946;2022-09-13T08:55:24;97138.00;;;28.34;43.50
19596;BME280;9945;46.010;8.946;2022-09-13T08:57:58;97132.34;;;29.44;40.62
19596;BME280;9945;46.010;8.946;2022-09-13T09:00:31;97146.09;;;33.92;33.71
19596;BME280;9945;46.010;8.946;2022-09-13T09:03:08;97146.22;;;37.65;27.17
19596;BME280;9945;46.010;8.946;2022-09-13T09:05:43;97155.13;;;40.13;23.92
19596;BME280;9945;46.010;8.946;2022-09-13T09:08:17;97145.53;;;41.87;21.78
19596;BME280;9945;46.010;8.946;2022-09-13T09:10:50;97146.38;;;43.75;19.86
19596;BME280;9945;46.010;8.946;2022-09-13T09:13:24;97151.56;;;44.94;18.75
19596;BME280;9945;46.010;8.946;2022-09-13T09:15:57;97151.38;;;46.54;17.32
19596;BME280;9945;46.010;8.946;2022-09-13T09:18:29;97154.38;;;47.55;15.96
19596;BME280;9945;46.010;8.946;2022-09-13T09:21:00;97153.34;;;48.34;15.57
19596;BME280;9945;46.010;8.946;2022-09-13T09:23:31;97157.22;;;50.09;14.35
19596;BME280;9945;46.010;8.946;2022-09-13T09:26:13;97161.75;;;50.89;13.27
19596;BME280;9945;46.010;8.946;2022-09-13T09:28:41;97171.31;;;52.16;12.39
19596;BME280;9945;46.010;8.946;2022-09-13T09:31:13;97165.66;;;51.66;12.78
19596;BME280;9945;46.010;8.946;2022-09-13T09:33:58;97167.31;;;52.17;12.87
19596;BME280;9945;46.010;8.946;2022-09-13T09:36:36;97169.75;;;53.88;11.48
19596;BME280;9945;46.010;8.946;2022-09-13T09:39:06;97171.41;;;53.85;11.77
19596;BME280;9945;46.010;8.946;2022-09-13T09:41:37;97171.63;;;54.11;11.63
19596;BME280;9945;46.010;8.946;2022-09-13T09:44:15;97170.66;;;56.19;10.36
19596;BME280;9945;46.010;8.946;2022-09-13T09:46:45;97155.50;;;55.08;9.89
19596;BME280;9945;46.010;8.946;2022-09-13T09:49:16;97159.91;;;53.01;11.59
19596;BME280;9945;46.010;8.946;2022-09-13T09:52:16;97163.91;;;52.06;11.88
19596;BME280;9945;46.010;8.946;2022-09-13T09:54:46;97162.72;;;53.96;11.30
19596;BME280;9945;46.010;8.946;2022-09-13T09:57:16;97152.50;;;54.06;11.16
19596;BME280;9945;46.010;8.946;2022-09-13T09:59:45;97161.31;;;53.32;11.21
19596;BME280;9945;46.010;8.946;2022-09-13T10:02:15;97154.41;;;54.90;10.62
19596;BME280;9945;46.010;8.946;2022-09-13T10:04:53;97157.47;;;56.29;9.87
19596;BME280;9945;46.010;8.946;2022-09-13T10:07:25;97164.72;;;57.55;8.73
19596;BME280;9945;46.010;8.946;2022-09-13T10:09:57;97161.38;;;59.92;8.18
19596;BME280;9945;46.010;8.946;2022-09-13T10:12:28;97152.00;;;58.22;8.87
19596;BME280;9945;46.010;8.946;2022-09-13T10:15:04;97141.56;;;57.70;9.13
19596;BME280;9945;46.010;8.946;2022-09-13T10:17:31;97147.84;;;59.27;7.50
19596;BME280;9945;46.010;8.946;2022-09-13T10:19:59;97147.19;;;59.59;7.28
19596;BME280;9945;46.010;8.946;2022-09-13T10:22:28;97137.28;;;58.36;7.87
19596;BME280;9945;46.010;8.946;2022-09-13T10:25:12;97136.56;;;58.72;7.17
19596;BME280;9945;46.010;8.946;2022-09-13T10:27:46;97134.97;;;58.71;7.56
19596;BME280;9945;46.010;8.946;2022-09-13T10:30:29;97128.31;;;56.83;8.68
19596;BME280;9945;46.010;8.946;2022-09-13T10:32:57;97142.56;;;57.76;8.61
19596;BME280;9945;46.010;8.946;2022-09-13T10:35:24;97148.44;;;57.90;8.41
19596;BME280;9945;46.010;8.946;2022-09-13T10:37:52;97144.00;;;58.29;8.20
19596;BME280;9945;46.010;8.946;2022-09-13T10:40:24;97160.56;;;58.49;7.09
19596;BME280;9945;46.010;8.946;2022-09-13T10:42:56;97180.09;;;59.20;8.13
19596;BME280;9945;46.010;8.946;2022-09-13T10:45:25;97173.56;;;59.56;6.73
19596;BME280;9945;46.010;8.946;2022-09-13T10:47:54;97169.34;;;60.60;6.85
19596;BME280;9945;46.010;8.946;2022-09-13T10:50:23;97151.94;;;59.86;7.17
19596;BME280;9945;46.010;8.946;2022-09-13T10:52:51;97135.47;;;62.27;6.02
19596;BME280;9945;46.010;8.946;2022-09-13T10:55:27;97119.66;;;61.56;6.07
19596;BME280;9945;46.010;8.946;2022-09-13T10:58:12;97102.19;;;58.73;7.68
19596;BME280;9945;46.010;8.946;2022-09-13T11:01:01;97094.81;;;58.85;7.33
19596;BME280;9945;46.010;8.946;2022-09-13T11:03:43;97083.81;;;57.83;8.20
19596;BME280;9945;46.010;8.946;2022-09-13T11:06:16;97081.28;;;57.76;8.35
19596;BME280;9945;46.010;8.946;2022-09-13T11:08:52;97069.56;;;57.96;8.44
19596;BME280;9945;46.010;8.946;2022-09-13T11:11:24;97070.56;;;60.05;7.08
19596;BME280;9945;46.010;8.946;2022-09-13T11:14:11;97065.38;;;60.03;7.31
19596;BME280;9945;46.010;8.946;2022-09-13T11:16:50;97053.75;;;60.25;6.70
19596;BME280;9945;46.010;8.946;2022-09-13T11:19:36;97058.13;;;60.02;7.19
19596;BME280;9945;46.010;8.946;2022-09-13T11:22:22;97050.06;;;58.65;7.32
19596;BME280;9945;46.010;8.946;2022-09-13T11:25:16;97037.41;;;55.88;8.75
19596;BME280;9945;46.010;8.946;2022-09-13T11:27:54;97035.97;;;55.45;9.31
19596;BME280;9945;46.010;8.946;2022-09-13T11:30:30;97035.97;;;57.40;8.63
19596;BME280;9945;46.010;8.946;2022-09-13T11:33:16;97026.66;;;56.55;8.50
19596;BME280;9945;46.010;8.946;2022-09-13T11:35:53;97017.03;;;54.21;10.19
19596;BME280;9945;46.010;8.946;2022-09-13T11:38:34;97013.28;;;53.95;10.63
19596;BME280;9945;46.010;8.946;2022-09-13T11:41:12;97015.03;;;54.80;9.71
19596;BME280;9945;46.010;8.946;2022-09-13T11:43:53;97002.91;;;54.54;10.15
19596;BME280;9945;46.010;8.946;2022-09-13T11:46:32;97010.16;;;53.25;10.35
19596;BME280;9945;46.010;8.946;2022-09-13T11:49:27;97010.22;;;53.02;10.60
19596;BME280;9945;46.010;8.946;2022-09-13T11:52:06;97004.72;;;52.78;11.26
19596;BME280;9945;46.010;8.946;2022-09-13T11:54:45;96999.81;;;52.43;11.48
19596;BME280;9945;46.010;8.946;2022-09-13T11:57:21;97001.66;;;51.02;12.43
19596;BME280;9945;46.010;8.946;2022-09-13T11:59:54;96993.09;;;49.63;13.07
19596;BME280;9945;46.010;8.946;2022-09-13T12:02:26;96998.09;;;49.86;12.99
19596;BME280;9945;46.010;8.946;2022-09-13T12:04:59;96994.06;;;49.90;12.90
19596;BME280;9945;46.010;8.946;2022-09-13T12:07:34;96992.78;;;48.67;14.38
19596;BME280;9945;46.010;8.946;2022-09-13T12:10:11;96984.75;;;46.12;15.90
19596;BME280;9945;46.010;8.946;2022-09-13T12:12:41;96984.13;;;45.81;16.36
19596;BME280;9945;46.010;8.946;2022-09-13T12:15:15;96983.75;;;45.42;16.73
19596;BME280;9945;46.010;8.946;2022-09-13T12:17:47;96973.28;;;44.58;17.22
19596;BME280;9945;46.010;8.946;2022-09-13T12:20:21;96972.09;;;45.63;16.54
19596;BME280;9945;46.010;8.946;2022-09-13T12:22:52;96971.88;;;44.41;17.43
19596;BME280;9945;46.010;8.946;2022-09-13T12:25:22;96976.22;;;44.12;17.97
19596;BME280;9945;46.010;8.946;2022-09-13T12:27:55;96963.19;;;43.41;18.37
19596;BME280;9945;46.010;8.946;2022-09-13T12:30:29;96966.22;;;43.82;18.37
19596;BME280;9945;46.010;8.946;2022-09-13T12:33:04;96971.00;;;43.58;18.67
19596;BME280;9945;46.010;8.946;2022-09-13T12:35:34;96969.16;;;42.82;19.19
19596;BME280;9945;46.010;8.946;2022-09-13T12:38:24;96973.09;;;42.46;19.62
19596;BME280;9945;46.010;8.946;2022-09-13T12:41:07;96968.88;;;41.07;20.91
19596;BME280;9945;46.010;8.946;2022-09-13T12:43:49;96962.72;;;41.88;20.47
19596;BME280;9945;46.010;8.946;2022-09-13T12:46:50;96961.66;;;42.09;20.37
19596;BME280;9945;46.010;8.946;2022-09-13T12:49:32;96966.47;;;41.80;20.33
19596;BME280;9945;46.010;8.946;2022-09-13T12:52:16;96964.41;;;41.14;21.39
19596;BME280;9945;46.010;8.946;2022-09-13T12:55:05;96963.88;;;39.56;23.22
19596;BME280;9945;46.010;8.946;2022-09-13T12:57:43;96959.72;;;39.38;23.39
19596;BME280;9945;46.010;8.946;2022-09-13T13:00:21;96963.75;;;40.25;22.08
19596;BME280;9945;46.010;8.946;2022-09-13T13:03:02;96965.53;;;40.58;22.29
19596;BME280;9945;46.010;8.946;2022-09-13T13:05:39;96961.72;;;40.74;22.31
19596;BME280;9945;46.010;8.946;2022-09-13T13:08:24;96963.59;;;40.46;22.72
19596;BME280;9945;46.010;8.946;2022-09-13T13:11:00;96973.59;;;39.65;23.14
19596;BME280;9945;46.010;8.946;2022-09-13T13:13:34;96968.16;;;38.67;24.13
19596;BME280;9945;46.010;8.946;2022-09-13T13:16:05;96956.66;;;38.32;24.87
19596;BME280;9945;46.010;8.946;2022-09-13T13:18:44;96956.06;;;38.26;25.35
19596;BME280;9945;46.010;8.946;2022-09-13T13:21:32;96963.41;;;38.13;25.45
19596;BME280;9945;46.010;8.946;2022-09-13T13:27:39;96955.28;;;37.20;25.69
19596;BME280;9945;46.010;8.946;2022-09-13T13:30:41;96955.63;;;36.84;27.00
19596;BME280;9945;46.010;8.946;2022-09-13T13:33:19;96945.69;;;36.28;26.75
19596;BME280;9945;46.010;8.946;2022-09-13T13:35:47;96938.75;;;36.13;27.17
19596;BME280;9945;46.010;8.946;2022-09-13T13:41:35;96945.03;;;35.65;28.56
19596;BME280;9945;46.010;8.946;2022-09-13T13:47:51;96956.38;;;35.19;28.60
19596;BME280;9945;46.010;8.946;2022-09-13T13:50:20;96950.75;;;34.27;30.55
19596;BME280;9945;46.010;8.946;2022-09-13T13:52:53;96948.84;;;34.00;30.51
19596;BME280;9945;46.010;8.946;2022-09-13T13:55:38;96937.94;;;34.13;31.03